sensor_id;sensor_type;location;lat;lon;timestamp;P1;durP1;ratioP1;P2;durP2;ratioP2
75912;SDS011;64592;52.168;21.040;2024-02-26T00:01:03;19.48;;;10.15;;
75912;SDS011;64592;52.168;21.040;2024-02-26T00:06:07;19.60;;;10.43;;
75912;SDS011;64592;52.168;21.040;2024-02-26T00:11:08;17.27;;;9.23;;
75912;SDS011;64592;52.168;21.040;2024-02-26T00:16:10;16.80;;;9.25;;
75912;SDS011;64592;52.168;21.040;2024-02-26T00:21:13;17.08;;;9.38;;
75912;SDS011;64592;52.168;21.040;2024-02-26T00:26:15;16.08;;;10.35;;
75912;SDS011;64592;52.168;21.040;2024-02-26T00:31:18;19.67;;;9.25;;
75912;SDS011;64592;52.168;21.040;2024-02-26T00:36:21;17.92;;;10.82;;
75912;SDS011;64592;52.168;21.040;2024-02-26T00:41:23;19.05;;;9.65;;
75912;SDS011;64592;52.168;21.040;2024-02-26T00:46:25;19.73;;;10.13;;
75912;SDS011;64592;52.168;21.040;2024-02-26T00:51:28;21.55;;;10.30;;
75912;SDS011;64592;52.168;21.040;2024-02-26T00:56:29;16.63;;;10.25;;
75912;SDS011;64592;52.168;21.040;2024-02-26T01:01:31;19.02;;;10.68;;
75912;SDS011;64592;52.168;21.040;2024-02-26T01:06:34;18.52;;;10.40;;
75912;SDS011;64592;52.168;21.040;2024-02-26T01:11:36;19.42;;;9.65;;
75912;SDS011;64592;52.168;21.040;2024-02-26T01:16:37;18.77;;;9.48;;
75912;SDS011;64592;52.168;21.040;2024-02-26T01:21:40;21.30;;;10.85;;
75912;SDS011;64592;52.168;21.040;2024-02-26T01:26:42;21.38;;;10.00;;
75912;SDS011;64592;52.168;21.040;2024-02-26T01:31:44;20.85;;;10.82;;
75912;SDS011;64592;52.168;21.040;2024-02-26T01:36:47;23.27;;;11.23;;
75912;SDS011;64592;52.168;21.040;2024-02-26T01:41:49;17.88;;;10.80;;
75912;SDS011;64592;52.168;21.040;2024-02-26T01:46:51;22.25;;;10.95;;
75912;SDS011;64592;52.168;21.040;2024-02-26T01:51:54;19.83;;;9.70;;
75912;SDS011;64592;52.168;21.040;2024-02-26T01:56:57;17.67;;;9.50;;
75912;SDS011;64592;52.168;21.040;2024-02-26T02:01:59;19.67;;;9.73;;
75912;SDS011;64592;52.168;21.040;2024-02-26T02:07:04;20.23;;;9.27;;
75912;SDS011;64592;52.168;21.040;2024-02-26T02:12:06;17.65;;;11.00;;
75912;SDS011;64592;52.168;21.040;2024-02-26T02:17:08;18.17;;;8.93;;
75912;SDS011;64592;52.168;21.040;2024-02-26T02:22:12;17.73;;;9.88;;
75912;SDS011;64592;52.168;21.040;2024-02-26T02:27:13;15.18;;;8.77;;
75912;SDS011;64592;52.168;21.040;2024-02-26T02:32:15;17.55;;;10.82;;
75912;SDS011;64592;52.168;21.040;2024-02-26T02:37:19;16.30;;;9.80;;
75912;SDS011;64592;52.168;21.040;2024-02-26T02:42:21;17.52;;;10.63;;
75912;SDS011;64592;52.168;21.040;2024-02-26T02:47:23;22.50;;;10.90;;
75912;SDS011;64592;52.168;21.040;2024-02-26T02:52:26;17.13;;;10.95;;
75912;SDS011;64592;52.168;21.040;2024-02-26T02:57:27;19.98;;;10.50;;
75912;SDS011;64592;52.168;21.040;2024-02-26T03:02:30;19.13;;;10.25;;
75912;SDS011;64592;52.168;21.040;2024-02-26T03:07:33;20.23;;;10.23;;
75912;SDS011;64592;52.168;21.040;2024-02-26T03:12:35;24.20;;;11.13;;
75912;SDS011;64592;52.168;21.040;2024-02-26T03:17:36;17.25;;;10.95;;
75912;SDS011;64592;52.168;21.040;2024-02-26T03:22:40;16.42;;;9.77;;
75912;SDS011;64592;52.168;21.040;2024-02-26T03:27:41;24.75;;;11.10;;
75912;SDS011;64592;52.168;21.040;2024-02-26T03:32:43;18.90;;;10.18;;
75912;SDS011;64592;52.168;21.040;2024-02-26T03:37:47;20.17;;;10.13;;
75912;SDS011;64592;52.168;21.040;2024-02-26T03:42:50;19.52;;;10.93;;
75912;SDS011;64592;52.168;21.040;2024-02-26T03:47:54;22.08;;;10.88;;
75912;SDS011;64592;52.168;21.040;2024-02-26T03:52:57;19.42;;;10.90;;
75912;SDS011;64592;52.168;21.040;2024-02-26T03:57:58;17.20;;;9.35;;
75912;SDS011;64592;52.168;21.040;2024-02-26T04:03:00;19.92;;;10.82;;
75912;SDS011;64592;52.168;21.040;2024-02-26T04:08:03;21.17;;;12.10;;
75912;SDS011;64592;52.168;21.040;2024-02-26T04:13:07;18.77;;;9.82;;
75912;SDS011;64592;52.168;21.040;2024-02-26T04:18:09;21.27;;;11.38;;
75912;SDS011;64592;52.168;21.040;2024-02-26T04:23:12;20.20;;;11.52;;
75912;SDS011;64592;52.168;21.040;2024-02-26T04:28:14;23.85;;;11.60;;
75912;SDS011;64592;52.168;21.040;2024-02-26T04:33:15;24.13;;;11.30;;
75912;SDS011;64592;52.168;21.040;2024-02-26T04:38:18;21.27;;;11.32;;
75912;SDS011;64592;52.168;21.040;2024-02-26T04:43:20;22.92;;;12.32;;
75912;SDS011;64592;52.168;21.040;2024-02-26T04:48:22;21.40;;;12.52;;
75912;SDS011;64592;52.168;21.040;2024-02-26T04:53:25;31.40;;;13.95;;
75912;SDS011;64592;52.168;21.040;2024-02-26T04:58:27;30.25;;;13.90;;
75912;SDS011;64592;52.168;21.040;2024-02-26T05:03:29;26.00;;;11.57;;
75912;SDS011;64592;52.168;21.040;2024-02-26T05:08:32;21.15;;;11.27;;
75912;SDS011;64592;52.168;21.040;2024-02-26T05:13:35;31.27;;;13.40;;
75912;SDS011;64592;52.168;21.040;2024-02-26T05:18:37;26.13;;;12.77;;
75912;SDS011;64592;52.168;21.040;2024-02-26T05:23:40;21.80;;;12.10;;
75912;SDS011;64592;52.168;21.040;2024-02-26T05:28:43;23.35;;;11.98;;
75912;SDS011;64592;52.168;21.040;2024-02-26T05:33:45;17.65;;;11.13;;
75912;SDS011;64592;52.168;21.040;2024-02-26T05:38:49;26.42;;;12.65;;
75912;SDS011;64592;52.168;21.040;2024-02-26T05:43:50;22.67;;;12.52;;
75912;SDS011;64592;52.168;21.040;2024-02-26T05:48:52;19.63;;;12.68;;
75912;SDS011;64592;52.168;21.040;2024-02-26T05:53:55;23.98;;;12.15;;
75912;SDS011;64592;52.168;21.040;2024-02-26T05:58:58;23.95;;;13.05;;
75912;SDS011;64592;52.168;21.040;2024-02-26T06:03:59;20.02;;;11.30;;
75912;SDS011;64592;52.168;21.040;2024-02-26T06:09:02;22.42;;;12.10;;
75912;SDS011;64592;52.168;21.040;2024-02-26T06:14:05;19.85;;;11.57;;
75912;SDS011;64592;52.168;21.040;2024-02-26T06:19:06;24.58;;;11.27;;
75912;SDS011;64592;52.168;21.040;2024-02-26T06:24:10;21.88;;;11.45;;
75912;SDS011;64592;52.168;21.040;2024-02-26T06:29:11;20.75;;;11.88;;
75912;SDS011;64592;52.168;21.040;2024-02-26T06:34:13;24.95;;;11.13;;
75912;SDS011;64592;52.168;21.040;2024-02-26T06:39:16;22.42;;;11.05;;
75912;SDS011;64592;52.168;21.040;2024-02-26T06:44:18;23.70;;;11.50;;
75912;SDS011;64592;52.168;21.040;2024-02-26T06:49:19;18.48;;;11.25;;
75912;SDS011;64592;52.168;21.040;2024-02-26T06:54:22;22.67;;;11.23;;
75912;SDS011;64592;52.168;21.040;2024-02-26T06:59:24;21.67;;;11.57;;
75912;SDS011;64592;52.168;21.040;2024-02-26T07:04:26;17.90;;;9.93;;
75912;SDS011;64592;52.168;21.040;2024-02-26T07:09:29;21.52;;;11.38;;
75912;SDS011;64592;52.168;21.040;2024-02-26T07:14:30;23.65;;;13.15;;
75912;SDS011;64592;52.168;21.040;2024-02-26T07:19:32;25.67;;;12.23;;
75912;SDS011;64592;52.168;21.040;2024-02-26T07:24:36;20.48;;;12.25;;
75912;SDS011;64592;52.168;21.040;2024-02-26T07:29:38;24.58;;;12.52;;
75912;SDS011;64592;52.168;21.040;2024-02-26T07:34:40;25.95;;;12.60;;
75912;SDS011;64592;52.168;21.040;2024-02-26T07:39:46;24.45;;;11.55;;
75912;SDS011;64592;52.168;21.040;2024-02-26T07:44:47;25.73;;;12.90;;
75912;SDS011;64592;52.168;21.040;2024-02-26T07:49:49;21.40;;;11.90;;
75912;SDS011;64592;52.168;21.040;2024-02-26T07:54:52;27.42;;;13.43;;
75912;SDS011;64592;52.168;21.040;2024-02-26T07:59:54;24.20;;;13.93;;
75912;SDS011;64592;52.168;21.040;2024-02-26T08:04:55;25.27;;;13.32;;
75912;SDS011;64592;52.168;21.040;2024-02-26T08:09:58;23.45;;;12.32;;
75912;SDS011;64592;52.168;21.040;2024-02-26T08:15:00;25.60;;;13.35;;
75912;SDS011;64592;52.168;21.040;2024-02-26T08:20:02;25.95;;;14.85;;
75912;SDS011;64592;52.168;21.040;2024-02-26T08:25:05;25.05;;;14.77;;
75912;SDS011;64592;52.168;21.040;2024-02-26T08:30:09;22.98;;;12.68;;
75912;SDS011;64592;52.168;21.040;2024-02-26T08:35:13;23.55;;;13.10;;
75912;SDS011;64592;52.168;21.040;2024-02-26T08:40:17;23.45;;;13.02;;
75912;SDS011;64592;52.168;21.040;2024-02-26T08:45:19;21.98;;;13.02;;
75912;SDS011;64592;52.168;21.040;2024-02-26T08:50:21;22.20;;;12.43;;
75912;SDS011;64592;52.168;21.040;2024-02-26T08:55:24;21.25;;;11.85;;
75912;SDS011;64592;52.168;21.040;2024-02-26T09:00:25;22.52;;;13.20;;
75912;SDS011;64592;52.168;21.040;2024-02-26T09:05:27;20.35;;;12.15;;
75912;SDS011;64592;52.168;21.040;2024-02-26T09:10:30;18.48;;;10.80;;
75912;SDS011;64592;52.168;21.040;2024-02-26T09:15:33;17.50;;;11.52;;
75912;SDS011;64592;52.168;21.040;2024-02-26T09:20:34;18.88;;;10.55;;
75912;SDS011;64592;52.168;21.040;2024-02-26T09:25:37;17.88;;;10.40;;
75912;SDS011;64592;52.168;21.040;2024-02-26T09:30:39;19.65;;;11.13;;
75912;SDS011;64592;52.168;21.040;2024-02-26T09:35:41;17.63;;;10.27;;
75912;SDS011;64592;52.168;21.040;2024-02-26T09:40:44;20.30;;;11.63;;
75912;SDS011;64592;52.168;21.040;2024-02-26T09:45:45;20.38;;;12.35;;
75912;SDS011;64592;52.168;21.040;2024-02-26T09:50:48;17.58;;;11.43;;
75912;SDS011;64592;52.168;21.040;2024-02-26T09:55:51;18.63;;;11.88;;
75912;SDS011;64592;52.168;21.040;2024-02-26T10:00:54;16.88;;;10.98;;
75912;SDS011;64592;52.168;21.040;2024-02-26T10:05:58;18.38;;;12.23;;
75912;SDS011;64592;52.168;21.040;2024-02-26T10:11:05;18.05;;;11.85;;
75912;SDS011;64592;52.168;21.040;2024-02-26T10:16:08;18.70;;;11.45;;
75912;SDS011;64592;52.168;21.040;2024-02-26T10:21:10;17.35;;;10.50;;
75912;SDS011;64592;52.168;21.040;2024-02-26T10:26:13;15.63;;;9.55;;
75912;SDS011;64592;52.168;21.040;2024-02-26T10:31:15;15.00;;;9.02;;
75912;SDS011;64592;52.168;21.040;2024-02-26T10:36:17;14.20;;;9.32;;
75912;SDS011;64592;52.168;21.040;2024-02-26T10:41:20;13.80;;;8.98;;
75912;SDS011;64592;52.168;21.040;2024-02-26T10:46:25;14.10;;;8.45;;
75912;SDS011;64592;52.168;21.040;2024-02-26T10:51:27;12.07;;;7.50;;
75912;SDS011;64592;52.168;21.040;2024-02-26T10:56:33;15.43;;;9.20;;
75912;SDS011;64592;52.168;21.040;2024-02-26T11:01:37;13.50;;;8.63;;
75912;SDS011;64592;52.168;21.040;2024-02-26T11:06:41;13.98;;;8.80;;
75912;SDS011;64592;52.168;21.040;2024-02-26T11:11:48;10.93;;;7.63;;
75912;SDS011;64592;52.168;21.040;2024-02-26T11:16:54;11.38;;;7.38;;
75912;SDS011;64592;52.168;21.040;2024-02-26T11:21:57;11.07;;;7.07;;
75912;SDS011;64592;52.168;21.040;2024-02-26T11:27:03;10.05;;;6.68;;
75912;SDS011;64592;52.168;21.040;2024-02-26T11:32:07;9.27;;;6.68;;
75912;SDS011;64592;52.168;21.040;2024-02-26T11:37:09;9.18;;;6.70;;
75912;SDS011;64592;52.168;21.040;2024-02-26T11:42:14;8.85;;;6.10;;
75912;SDS011;64592;52.168;21.040;2024-02-26T11:47:17;7.80;;;5.68;;
75912;SDS011;64592;52.168;21.040;2024-02-26T11:52:20;8.25;;;6.03;;
75912;SDS011;64592;52.168;21.040;2024-02-26T11:57:26;7.25;;;5.13;;
75912;SDS011;64592;52.168;21.040;2024-02-26T12:02:39;6.22;;;4.32;;
75912;SDS011;64592;52.168;21.040;2024-02-26T12:07:43;6.60;;;5.07;;
75912;SDS011;64592;52.168;21.040;2024-02-26T12:12:48;7.13;;;4.47;;
75912;SDS011;64592;52.168;21.040;2024-02-26T12:17:50;5.25;;;3.92;;
75912;SDS011;64592;52.168;21.040;2024-02-26T12:22:52;5.57;;;3.97;;
75912;SDS011;64592;52.168;21.040;2024-02-26T12:27:57;8.45;;;4.47;;
75912;SDS011;64592;52.168;21.040;2024-02-26T12:32:58;6.90;;;4.25;;
75912;SDS011;64592;52.168;21.040;2024-02-26T12:38:00;10.60;;;6.85;;
75912;SDS011;64592;52.168;21.040;2024-02-26T12:43:05;6.10;;;4.15;;
75912;SDS011;64592;52.168;21.040;2024-02-26T12:48:09;8.23;;;4.22;;
75912;SDS011;64592;52.168;21.040;2024-02-26T12:53:12;4.43;;;3.20;;
75912;SDS011;64592;52.168;21.040;2024-02-26T12:58:15;4.57;;;3.03;;
75912;SDS011;64592;52.168;21.040;2024-02-26T13:03:18;4.40;;;3.10;;
75912;SDS011;64592;52.168;21.040;2024-02-26T13:08:20;6.85;;;3.38;;
75912;SDS011;64592;52.168;21.040;2024-02-26T13:13:23;4.82;;;2.92;;
75912;SDS011;64592;52.168;21.040;2024-02-26T13:18:27;4.07;;;3.00;;
75912;SDS011;64592;52.168;21.040;2024-02-26T13:23:30;5.20;;;4.22;;
75912;SDS011;64592;52.168;21.040;2024-02-26T13:28:34;4.65;;;3.05;;
75912;SDS011;64592;52.168;21.040;2024-02-26T13:33:35;6.25;;;3.20;;
75912;SDS011;64592;52.168;21.040;2024-02-26T13:38:37;4.00;;;2.85;;
75912;SDS011;64592;52.168;21.040;2024-02-26T13:43:40;3.53;;;2.60;;
75912;SDS011;64592;52.168;21.040;2024-02-26T13:48:42;4.00;;;3.05;;
75912;SDS011;64592;52.168;21.040;2024-02-26T13:53:44;5.45;;;3.33;;
75912;SDS011;64592;52.168;21.040;2024-02-26T13:58:47;4.30;;;3.35;;
75912;SDS011;64592;52.168;21.040;2024-02-26T14:03:49;4.72;;;3.03;;
75912;SDS011;64592;52.168;21.040;2024-02-26T14:08:51;4.93;;;3.22;;
75912;SDS011;64592;52.168;21.040;2024-02-26T14:13:54;5.10;;;3.03;;
75912;SDS011;64592;52.168;21.040;2024-02-26T14:18:55;4.30;;;2.88;;
75912;SDS011;64592;52.168;21.040;2024-02-26T14:23:57;4.85;;;2.97;;
75912;SDS011;64592;52.168;21.040;2024-02-26T14:29:00;4.55;;;2.72;;
75912;SDS011;64592;52.168;21.040;2024-02-26T14:34:02;4.57;;;3.33;;
75912;SDS011;64592;52.168;21.040;2024-02-26T14:39:03;4.45;;;3.20;;
75912;SDS011;64592;52.168;21.040;2024-02-26T14:44:06;4.57;;;2.83;;
75912;SDS011;64592;52.168;21.040;2024-02-26T14:49:09;3.72;;;2.80;;
75912;SDS011;64592;52.168;21.040;2024-02-26T14:54:12;5.07;;;2.97;;
75912;SDS011;64592;52.168;21.040;2024-02-26T14:59:15;5.57;;;3.38;;
75912;SDS011;64592;52.168;21.040;2024-02-26T15:04:17;6.75;;;3.33;;
75912;SDS011;64592;52.168;21.040;2024-02-26T15:09:18;5.82;;;3.00;;
75912;SDS011;64592;52.168;21.040;2024-02-26T15:14:22;5.22;;;3.28;;
75912;SDS011;64592;52.168;21.040;2024-02-26T15:19:24;4.50;;;3.00;;
75912;SDS011;64592;52.168;21.040;2024-02-26T15:24:25;5.07;;;3.38;;
75912;SDS011;64592;52.168;21.040;2024-02-26T15:29:28;6.55;;;3.40;;
75912;SDS011;64592;52.168;21.040;2024-02-26T15:34:30;6.03;;;3.50;;
75912;SDS011;64592;52.168;21.040;2024-02-26T15:39:32;5.28;;;3.45;;
75912;SDS011;64592;52.168;21.040;2024-02-26T15:44:38;5.38;;;3.78;;
75912;SDS011;64592;52.168;21.040;2024-02-26T15:49:39;5.22;;;3.53;;
75912;SDS011;64592;52.168;21.040;2024-02-26T15:54:41;6.43;;;3.60;;
75912;SDS011;64592;52.168;21.040;2024-02-26T15:59:44;6.97;;;4.35;;
75912;SDS011;64592;52.168;21.040;2024-02-26T16:04:48;7.82;;;4.15;;
75912;SDS011;64592;52.168;21.040;2024-02-26T16:09:50;8.13;;;4.10;;
75912;SDS011;64592;52.168;21.040;2024-02-26T16:14:54;6.55;;;4.50;;
75912;SDS011;64592;52.168;21.040;2024-02-26T16:19:56;12.93;;;4.82;;
75912;SDS011;64592;52.168;21.040;2024-02-26T16:24:58;9.65;;;4.30;;
75912;SDS011;64592;52.168;21.040;2024-02-26T16:30:01;7.82;;;5.30;;
75912;SDS011;64592;52.168;21.040;2024-02-26T16:35:05;9.77;;;5.50;;
75912;SDS011;64592;52.168;21.040;2024-02-26T16:40:08;9.52;;;6.20;;
75912;SDS011;64592;52.168;21.040;2024-02-26T16:45:11;9.45;;;6.20;;
75912;SDS011;64592;52.168;21.040;2024-02-26T16:50:13;10.85;;;6.57;;
75912;SDS011;64592;52.168;21.040;2024-02-26T16:55:15;13.25;;;8.45;;
75912;SDS011;64592;52.168;21.040;2024-02-26T17:00:19;12.02;;;7.05;;
75912;SDS011;64592;52.168;21.040;2024-02-26T17:05:21;12.02;;;7.03;;
75912;SDS011;64592;52.168;21.040;2024-02-26T17:10:22;11.38;;;7.82;;
75912;SDS011;64592;52.168;21.040;2024-02-26T17:15:25;15.73;;;9.70;;
75912;SDS011;64592;52.168;21.040;2024-02-26T17:20:27;13.35;;;8.38;;
75912;SDS011;64592;52.168;21.040;2024-02-26T17:25:29;13.73;;;8.90;;
75912;SDS011;64592;52.168;21.040;2024-02-26T17:30:32;18.30;;;10.77;;
75912;SDS011;64592;52.168;21.040;2024-02-26T17:35:33;16.23;;;9.50;;
75912;SDS011;64592;52.168;21.040;2024-02-26T17:40:35;18.13;;;10.50;;
75912;SDS011;64592;52.168;21.040;2024-02-26T17:45:38;21.35;;;11.38;;
75912;SDS011;64592;52.168;21.040;2024-02-26T17:50:40;20.10;;;11.77;;
75912;SDS011;64592;52.168;21.040;2024-02-26T17:55:42;22.75;;;11.90;;
75912;SDS011;64592;52.168;21.040;2024-02-26T18:00:45;22.65;;;13.35;;
75912;SDS011;64592;52.168;21.040;2024-02-26T18:05:47;21.02;;;14.10;;
75912;SDS011;64592;52.168;21.040;2024-02-26T18:10:49;25.27;;;14.68;;
75912;SDS011;64592;52.168;21.040;2024-02-26T18:15:52;26.25;;;15.45;;
75912;SDS011;64592;52.168;21.040;2024-02-26T18:20:53;24.35;;;14.20;;
75912;SDS011;64592;52.168;21.040;2024-02-26T18:25:55;28.40;;;15.68;;
75912;SDS011;64592;52.168;21.040;2024-02-26T18:30:58;30.42;;;16.67;;
75912;SDS011;64592;52.168;21.040;2024-02-26T18:36:00;30.98;;;15.95;;
75912;SDS011;64592;52.168;21.040;2024-02-26T18:41:04;29.63;;;17.77;;
75912;SDS011;64592;52.168;21.040;2024-02-26T18:46:07;29.30;;;16.83;;
75912;SDS011;64592;52.168;21.040;2024-02-26T18:51:08;30.27;;;16.40;;
75912;SDS011;64592;52.168;21.040;2024-02-26T18:56:11;30.17;;;17.50;;
75912;SDS011;64592;52.168;21.040;2024-02-26T19:01:15;30.90;;;17.30;;
75912;SDS011;64592;52.168;21.040;2024-02-26T19:06:17;31.58;;;18.25;;
75912;SDS011;64592;52.168;21.040;2024-02-26T19:11:19;32.38;;;19.27;;
75912;SDS011;64592;52.168;21.040;2024-02-26T19:16:23;33.28;;;18.23;;
75912;SDS011;64592;52.168;21.040;2024-02-26T19:21:24;32.35;;;18.88;;
75912;SDS011;64592;52.168;21.040;2024-02-26T19:26:26;35.83;;;19.52;;
75912;SDS011;64592;52.168;21.040;2024-02-26T19:31:29;34.80;;;19.33;;
75912;SDS011;64592;52.168;21.040;2024-02-26T19:36:31;36.00;;;20.10;;
75912;SDS011;64592;52.168;21.040;2024-02-26T19:41:33;34.55;;;20.13;;
75912;SDS011;64592;52.168;21.040;2024-02-26T19:46:36;32.78;;;18.80;;
75912;SDS011;64592;52.168;21.040;2024-02-26T19:51:37;37.30;;;19.80;;
75912;SDS011;64592;52.168;21.040;2024-02-26T19:56:39;32.85;;;20.58;;
75912;SDS011;64592;52.168;21.040;2024-02-26T20:01:42;33.85;;;19.40;;
75912;SDS011;64592;52.168;21.040;2024-02-26T20:06:44;33.13;;;19.25;;
75912;SDS011;64592;52.168;21.040;2024-02-26T20:11:46;34.88;;;21.10;;
75912;SDS011;64592;52.168;21.040;2024-02-26T20:16:49;32.95;;;19.20;;
75912;SDS011;64592;52.168;21.040;2024-02-26T20:21:51;36.60;;;20.23;;
75912;SDS011;64592;52.168;21.040;2024-02-26T20:26:53;36.50;;;20.92;;
75912;SDS011;64592;52.168;21.040;2024-02-26T20:31:56;36.40;;;20.38;;
75912;SDS011;64592;52.168;21.040;2024-02-26T20:36:59;34.72;;;18.90;;
75912;SDS011;64592;52.168;21.040;2024-02-26T20:42:02;33.45;;;20.77;;
75912;SDS011;64592;52.168;21.040;2024-02-26T20:47:05;39.35;;;23.15;;
75912;SDS011;64592;52.168;21.040;2024-02-26T20:52:07;33.38;;;20.48;;
75912;SDS011;64592;52.168;21.040;2024-02-26T20:57:08;39.65;;;21.42;;
75912;SDS011;64592;52.168;21.040;2024-02-26T21:02:13;36.22;;;21.00;;
75912;SDS011;64592;52.168;21.040;2024-02-26T21:07:14;37.08;;;21.13;;
75912;SDS011;64592;52.168;21.040;2024-02-26T21:12:16;37.88;;;21.08;;
75912;SDS011;64592;52.168;21.040;2024-02-26T21:17:19;37.70;;;21.27;;
75912;SDS011;64592;52.168;21.040;2024-02-26T21:22:21;34.50;;;20.58;;
75912;SDS011;64592;52.168;21.040;2024-02-26T21:27:22;38.40;;;22.42;;
75912;SDS011;64592;52.168;21.040;2024-02-26T21:32:25;37.08;;;20.88;;
75912;SDS011;64592;52.168;21.040;2024-02-26T21:37:27;30.90;;;18.77;;
75912;SDS011;64592;52.168;21.040;2024-02-26T21:42:29;38.50;;;20.73;;
75912;SDS011;64592;52.168;21.040;2024-02-26T21:47:32;40.85;;;21.90;;
75912;SDS011;64592;52.168;21.040;2024-02-26T21:52:34;36.05;;;20.30;;
75912;SDS011;64592;52.168;21.040;2024-02-26T21:57:35;36.28;;;20.05;;
75912;SDS011;64592;52.168;21.040;2024-02-26T22:02:39;35.70;;;20.00;;
75912;SDS011;64592;52.168;21.040;2024-02-26T22:07:40;39.03;;;21.92;;
75912;SDS011;64592;52.168;21.040;2024-02-26T22:12:43;44.25;;;21.65;;
75912;SDS011;64592;52.168;21.040;2024-02-26T22:17:46;35.55;;;20.48;;
75912;SDS011;64592;52.168;21.040;2024-02-26T22:22:48;40.80;;;22.13;;
75912;SDS011;64592;52.168;21.040;2024-02-26T22:27:49;40.92;;;20.17;;
75912;SDS011;64592;52.168;21.040;2024-02-26T22:32:52;41.47;;;20.80;;
75912;SDS011;64592;52.168;21.040;2024-02-26T22:37:55;44.55;;;23.17;;
75912;SDS011;64592;52.168;21.040;2024-02-26T22:42:56;39.10;;;21.85;;
75912;SDS011;64592;52.168;21.040;2024-02-26T22:47:59;37.63;;;21.63;;
75912;SDS011;64592;52.168;21.040;2024-02-26T22:53:01;39.55;;;20.27;;
75912;SDS011;64592;52.168;21.040;2024-02-26T22:58:03;36.75;;;21.70;;
75912;SDS011;64592;52.168;21.040;2024-02-26T23:03:06;39.83;;;21.40;;
75912;SDS011;64592;52.168;21.040;2024-02-26T23:08:08;38.58;;;22.20;;
75912;SDS011;64592;52.168;21.040;2024-02-26T23:13:10;41.55;;;21.40;;
75912;SDS011;64592;52.168;21.040;2024-02-26T23:18:13;40.03;;;20.55;;
75912;SDS011;64592;52.168;21.040;2024-02-26T23:23:15;35.58;;;21.27;;
75912;SDS011;64592;52.168;21.040;2024-02-26T23:28:17;34.92;;;20.75;;
75912;SDS011;64592;52.168;21.040;2024-02-26T23:33:20;33.88;;;18.98;;
75912;SDS011;64592;52.168;21.040;2024-02-26T23:38:21;37.03;;;19.42;;
75912;SDS011;64592;52.168;21.040;2024-02-26T23:43:23;35.47;;;19.30;;
75912;SDS011;64592;52.168;21.040;2024-02-26T23:48:26;39.78;;;20.70;;
75912;SDS011;64592;52.168;21.040;2024-02-26T23:53:28;33.05;;;18.70;;
75912;SDS011;64592;52.168;21.040;2024-02-26T23:58:29;37.28;;;19.23;;
